Hinton, United Kingdom
Current Conditions -  °F | °C
As of 5:20 AM on Wednesday 26 Nov 2014 (Local Time) from EGGD Reporting Station
Light Rain Light Rain  
Wind Chill: 36°   Ceiling: 100
Heat Index: 41°   Visibility: 0.06mi
Dew Point: 41°   Wind: 7mph
Humidity: 100%   Direction: 30°NNE
Pressure: 29.88"   Gusts: NA
Location:  51.49°N, 2.38°W
Report Text: EGGD 260520Z 03006KT 0100 R27/0375 -RA FG BKN000 OVC001 05/05 Q1012
Loading
Personal Weather Stations






























Interactive Weather Map New forecast layout! Learn more

10-Day Weather Forecast

Advertisements
Track Severe Weather on mobile